createdAt,value
2018-06-19T00:01:54.879Z,16.40
2018-06-19T00:04:23.105Z,16.40
2018-06-19T00:06:51.397Z,16.40
2018-06-19T00:09:19.643Z,16.40
2018-06-19T00:11:47.880Z,16.50
2018-06-19T00:14:16.286Z,16.60
2018-06-19T00:16:44.508Z,16.60
2018-06-19T00:19:12.987Z,16.70
2018-06-19T00:21:46.667Z,16.70
2018-06-19T00:24:14.909Z,16.80
2018-06-19T00:29:11.132Z,16.90
2018-06-19T00:31:39.379Z,17.00
2018-06-19T00:34:07.679Z,17.10
2018-06-19T00:36:35.884Z,17.10
2018-06-19T00:41:34.139Z,17.10
2018-06-19T00:44:02.411Z,17.00
2018-06-19T00:46:31.111Z,17.00
2018-06-19T00:48:59.335Z,17.00
2018-06-19T00:51:27.550Z,16.90
2018-06-19T00:53:55.772Z,16.90
2018-06-19T00:56:35.692Z,16.80
2018-06-19T00:59:03.896Z,16.80
2018-06-19T01:01:32.102Z,16.90
2018-06-19T01:04:00.348Z,17.00
2018-06-19T01:06:28.568Z,17.00
2018-06-19T01:08:56.793Z,17.00
2018-06-19T01:11:25.007Z,17.00
2018-06-19T01:13:53.416Z,17.10
2018-06-19T01:16:21.637Z,17.20
2018-06-19T01:18:49.852Z,17.20
2018-06-19T01:21:18.082Z,17.20
2018-06-19T01:23:46.289Z,17.20
2018-06-19T01:26:14.515Z,17.20
2018-06-19T01:28:42.742Z,17.30
2018-06-19T01:31:10.988Z,17.30
2018-06-19T01:33:39.220Z,17.20
2018-06-19T01:36:07.454Z,17.30
2018-06-19T01:38:35.704Z,17.30
2018-06-19T01:41:03.940Z,17.30
2018-06-19T01:43:32.180Z,17.30
2018-06-19T01:46:00.424Z,17.30
2018-06-19T01:48:28.644Z,17.30
2018-06-19T01:50:56.872Z,17.20
2018-06-19T01:53:25.125Z,17.20
2018-06-19T01:55:53.521Z,17.30
2018-06-19T01:58:21.767Z,17.20
2018-06-19T02:00:49.991Z,17.30
2018-06-19T02:03:18.208Z,17.20
2018-06-19T02:05:46.439Z,17.10
2018-06-19T02:08:14.675Z,17.10
2018-06-19T02:10:42.915Z,17.00
2018-06-19T02:13:11.111Z,16.90
2018-06-19T02:15:39.378Z,16.90
2018-06-19T02:18:07.598Z,16.90
2018-06-19T02:20:35.832Z,16.90
2018-06-19T02:23:04.120Z,16.90
2018-06-19T02:25:32.326Z,16.90
2018-06-19T02:28:00.559Z,16.90
2018-06-19T02:30:28.786Z,16.90
2018-06-19T02:32:57.005Z,17.00
2018-06-19T02:35:25.306Z,17.00
2018-06-19T02:37:53.535Z,17.00
2018-06-19T02:40:21.763Z,17.00
2018-06-19T02:42:49.997Z,17.00
2018-06-19T02:45:18.209Z,17.00
2018-06-19T02:47:46.448Z,17.10
2018-06-19T02:50:15.124Z,17.00
2018-06-19T02:52:43.352Z,17.00
2018-06-19T02:55:11.560Z,16.90
2018-06-19T02:57:41.049Z,16.80
2018-06-19T03:00:09.295Z,16.80
2018-06-19T03:02:37.531Z,16.80
2018-06-19T03:05:06.056Z,16.70
2018-06-19T03:07:34.298Z,16.60
2018-06-19T03:10:02.494Z,16.50
2018-06-19T03:12:30.721Z,16.50
2018-06-19T03:14:58.925Z,16.40
2018-06-19T03:17:27.295Z,16.50
2018-06-19T03:19:55.604Z,16.40
2018-06-19T03:22:23.832Z,16.30
2018-06-19T03:24:52.047Z,16.30
2018-06-19T03:27:20.294Z,16.30
2018-06-19T03:29:48.540Z,16.40
2018-06-19T03:32:16.755Z,16.50
2018-06-19T03:34:44.959Z,16.60
2018-06-19T03:37:13.197Z,16.80
2018-06-19T03:39:41.438Z,16.90
2018-06-19T03:42:09.712Z,17.00
2018-06-19T03:44:37.948Z,17.20
2018-06-19T03:47:06.147Z,17.20
2018-06-19T03:49:34.387Z,17.30
2018-06-19T03:52:02.716Z,17.30
2018-06-19T03:54:30.955Z,17.40
2018-06-19T03:56:59.162Z,17.50
2018-06-19T03:59:27.393Z,17.60
2018-06-19T04:01:55.620Z,17.80
2018-06-19T04:04:23.846Z,17.90
2018-06-19T04:06:52.078Z,18.00
2018-06-19T04:09:20.350Z,17.90
2018-06-19T04:14:16.760Z,17.80
2018-06-19T04:16:45.013Z,17.90
2018-06-19T04:19:13.252Z,17.90
2018-06-19T04:21:41.471Z,17.90
2018-06-19T04:24:09.724Z,18.00
2018-06-19T04:26:38.062Z,18.00
2018-06-19T04:31:34.271Z,18.30
2018-06-19T04:34:02.490Z,18.50
2018-06-19T04:36:30.886Z,18.70
2018-06-19T04:38:59.435Z,18.80
2018-06-19T04:41:27.660Z,19.00
2018-06-19T04:43:55.899Z,19.10
2018-06-19T04:46:24.144Z,19.10
2018-06-19T04:48:52.383Z,19.20
2018-06-19T04:51:20.724Z,19.40
2018-06-19T04:53:49.073Z,19.40
2018-06-19T04:56:17.316Z,19.40
2018-06-19T04:58:45.547Z,19.40
2018-06-19T05:01:13.803Z,19.50
2018-06-19T05:03:42.082Z,19.50
2018-06-19T05:06:10.416Z,19.50
2018-06-19T05:08:38.669Z,19.60
2018-06-19T05:11:07.128Z,19.60
2018-06-19T05:13:35.438Z,19.60
2018-06-19T05:16:03.924Z,19.60
2018-06-19T05:18:32.165Z,19.70
2018-06-19T05:21:00.388Z,19.80
2018-06-19T05:23:28.624Z,20.00
2018-06-19T05:25:57.535Z,20.20
2018-06-19T05:28:25.784Z,20.40
2018-06-19T05:30:54.015Z,20.40
2018-06-19T05:33:22.229Z,20.50
2018-06-19T05:35:50.455Z,20.60
2018-06-19T05:38:18.680Z,20.60
2018-06-19T05:40:47.108Z,20.50
2018-06-19T05:43:15.364Z,20.50
2018-06-19T05:45:43.624Z,20.40
2018-06-19T05:48:11.857Z,20.60
2018-06-19T05:50:40.161Z,20.60
2018-06-19T05:53:08.393Z,20.70
2018-06-19T05:55:36.632Z,20.80
2018-06-19T05:58:04.836Z,20.90
2018-06-19T06:00:33.134Z,21.20
2018-06-19T06:03:01.351Z,21.50
2018-06-19T06:05:29.660Z,21.70
2018-06-19T06:07:57.940Z,21.80
2018-06-19T06:10:26.179Z,22.00
2018-06-19T06:12:54.411Z,22.40
2018-06-19T06:15:22.662Z,22.40
2018-06-19T06:17:50.946Z,22.20
2018-06-19T06:20:19.225Z,22.20
2018-06-19T06:22:47.497Z,22.30
2018-06-19T06:27:43.781Z,22.50
2018-06-19T06:30:12.007Z,22.50
2018-06-19T06:35:08.282Z,22.70
2018-06-19T06:37:36.571Z,22.80
2018-06-19T06:40:05.015Z,22.60
2018-06-19T06:42:33.252Z,22.80
2018-06-19T06:45:01.493Z,23.20
2018-06-19T06:47:29.783Z,23.60
2018-06-19T06:49:58.175Z,23.80
2018-06-19T06:52:26.398Z,23.90
2018-06-19T06:54:54.629Z,23.90
2018-06-19T06:57:22.864Z,23.70
2018-06-19T06:59:51.100Z,23.40
2018-06-19T07:02:19.336Z,23.30
2018-06-19T07:04:47.626Z,23.40
2018-06-19T07:07:15.937Z,23.60
2018-06-19T07:09:44.145Z,23.70
2018-06-19T07:12:12.413Z,23.60
2018-06-19T07:14:40.626Z,23.60
2018-06-19T07:17:09.239Z,23.60
2018-06-19T07:19:37.471Z,23.80
2018-06-19T07:22:05.852Z,24.20
2018-06-19T07:24:34.081Z,24.60
2018-06-19T07:27:02.333Z,24.90
2018-06-19T07:29:30.573Z,25.60
2018-06-19T07:31:58.900Z,26.50
2018-06-19T07:34:27.376Z,28.60
2018-06-19T07:39:23.625Z,34.10
2018-06-19T07:41:51.860Z,35.60
2018-06-19T07:44:20.106Z,35.90
2018-06-19T07:46:48.443Z,36.90
2018-06-19T07:49:16.685Z,38.20
2018-06-19T07:51:44.896Z,38.50
2018-06-19T07:54:13.151Z,38.50
2018-06-19T07:59:09.459Z,38.20
2018-06-19T08:01:37.684Z,38.80
2018-06-19T08:04:05.970Z,37.80
2018-06-19T08:06:34.567Z,37.00
2018-06-19T08:09:02.959Z,37.20
2018-06-19T08:11:31.189Z,38.50
2018-06-19T08:16:27.469Z,39.70
2018-06-19T08:19:01.443Z,40.60
2018-06-19T08:21:29.807Z,40.40
2018-06-19T08:23:58.040Z,40.40
2018-06-19T08:26:26.288Z,38.30
2018-06-19T08:28:55.044Z,38.30
2018-06-19T08:31:23.258Z,39.20
2018-06-19T08:33:51.500Z,40.20
2018-06-19T08:38:47.955Z,40.70
2018-06-19T08:41:16.180Z,39.90
2018-06-19T08:43:44.624Z,40.40
2018-06-19T08:46:12.876Z,41.00
2018-06-19T08:48:41.108Z,41.70
2018-06-19T08:51:09.358Z,41.60
2018-06-19T08:53:37.591Z,42.30
2018-06-19T08:56:06.184Z,42.10
2018-06-19T08:58:34.727Z,39.70
2018-06-19T09:01:03.008Z,39.60
2018-06-19T09:03:31.233Z,40.40
2018-06-19T09:05:59.575Z,40.60
2018-06-19T09:08:27.823Z,41.20
2018-06-19T09:10:56.081Z,41.30
2018-06-19T09:13:24.372Z,41.40
2018-06-19T09:15:52.588Z,41.30
2018-06-19T09:18:20.824Z,39.50
2018-06-19T09:20:49.101Z,35.60
2018-06-19T09:23:17.324Z,33.20
2018-06-19T09:25:45.573Z,33.20
2018-06-19T09:28:13.812Z,35.10
2018-06-19T09:30:42.039Z,36.10
2018-06-19T09:33:10.272Z,34.40
2018-06-19T09:35:38.519Z,33.70
2018-06-19T09:38:06.868Z,34.10
2018-06-19T09:40:35.144Z,35.80
2018-06-19T09:43:03.407Z,37.10
2018-06-19T09:45:31.649Z,38.60
2018-06-19T09:47:59.927Z,39.30
2018-06-19T09:50:28.164Z,40.10
2018-06-19T09:52:56.416Z,40.30
2018-06-19T09:55:24.708Z,39.80
2018-06-19T09:57:52.956Z,37.80
2018-06-19T10:02:54.670Z,35.20
2018-06-19T10:05:22.924Z,35.00
2018-06-19T10:07:51.328Z,33.60
2018-06-19T10:10:19.696Z,32.30
2018-06-19T10:12:47.978Z,31.00
2018-06-19T10:15:16.447Z,31.50
2018-06-19T10:17:44.672Z,33.60
2018-06-19T10:20:13.197Z,35.10
2018-06-19T10:22:41.471Z,34.30
2018-06-19T10:25:09.715Z,32.90
2018-06-19T10:30:05.979Z,31.50
2018-06-19T10:32:34.397Z,30.70
2018-06-19T10:35:02.680Z,30.20
2018-06-19T10:37:31.184Z,30.10
2018-06-19T10:40:00.111Z,29.80
2018-06-19T10:42:28.454Z,29.80
2018-06-19T10:44:56.681Z,30.00
2018-06-19T10:47:25.099Z,30.20
2018-06-19T10:49:53.326Z,30.10
2018-06-19T10:52:21.668Z,29.80
2018-06-19T10:54:49.989Z,29.50
2018-06-19T10:57:18.410Z,29.20
2018-06-19T10:59:46.656Z,29.00
2018-06-19T11:02:14.990Z,28.90
2018-06-19T11:04:43.205Z,28.90
2018-06-19T11:07:11.444Z,28.60
2018-06-19T11:09:39.690Z,28.30
2018-06-19T11:12:07.930Z,28.00
2018-06-19T11:14:36.202Z,27.80
2018-06-19T11:17:04.481Z,27.80
2018-06-19T11:19:32.692Z,28.00
2018-06-19T11:22:00.971Z,28.20
2018-06-19T11:24:29.208Z,28.40
2018-06-19T11:26:57.461Z,28.90
2018-06-19T11:29:25.744Z,29.10
2018-06-19T11:31:53.966Z,29.30
2018-06-19T11:34:22.198Z,29.40
2018-06-19T11:36:50.453Z,29.20
2018-06-19T11:39:18.692Z,29.10
2018-06-19T11:41:46.909Z,29.00
2018-06-19T11:46:43.184Z,28.70
2018-06-19T11:49:11.452Z,28.50
2018-06-19T11:51:39.679Z,28.40
2018-06-19T11:54:08.231Z,28.30
2018-06-19T11:56:36.531Z,28.10
2018-06-19T11:59:04.873Z,27.90
2018-06-19T12:01:33.256Z,27.70
2018-06-19T12:04:01.502Z,27.60
2018-06-19T12:06:29.766Z,27.50
2018-06-19T12:08:58.048Z,27.40
2018-06-19T12:11:26.284Z,27.40
2018-06-19T12:16:24.104Z,27.50
2018-06-19T12:18:52.432Z,27.40
2018-06-19T12:21:20.695Z,27.30
2018-06-19T12:26:17.073Z,27.40
2018-06-19T12:28:45.391Z,27.20
2018-06-19T12:31:13.732Z,27.20
2018-06-19T12:33:41.974Z,27.20
2018-06-19T12:38:38.409Z,27.00
2018-06-19T12:41:06.785Z,27.00
2018-06-19T12:43:35.039Z,27.20
2018-06-19T12:46:03.264Z,27.30
2018-06-19T12:52:11.877Z,27.40
2018-06-19T12:55:22.218Z,27.50
2018-06-19T12:57:50.899Z,27.40
2018-06-19T13:00:19.217Z,27.20
2018-06-19T13:02:59.231Z,27.30
2018-06-19T13:05:38.787Z,27.30
2018-06-19T13:08:07.032Z,27.40
2018-06-19T13:10:35.322Z,27.60
2018-06-19T13:13:22.756Z,27.90
2018-06-19T13:15:52.173Z,28.00
2018-06-19T13:18:33.050Z,28.30
2018-06-19T13:23:29.502Z,28.60
2018-06-19T13:28:37.391Z,28.90
2018-06-19T13:31:17.253Z,28.90
2018-06-19T13:33:45.557Z,28.60
2018-06-19T13:36:13.901Z,28.50
2018-06-19T13:38:42.583Z,28.50
2018-06-19T13:41:28.149Z,28.40
2018-06-19T13:44:11.181Z,28.50
2018-06-19T13:49:07.504Z,28.30
2018-06-19T13:51:35.805Z,28.20
2018-06-19T13:54:04.020Z,28.20
2018-06-19T13:57:46.366Z,28.40
2018-06-19T14:00:17.521Z,28.50
2018-06-19T14:02:45.782Z,28.50
2018-06-19T14:05:14.915Z,28.60
2018-06-19T14:07:56.781Z,28.30
2018-06-19T14:10:36.248Z,28.00
2018-06-19T14:13:04.516Z,27.80
2018-06-19T14:15:38.718Z,27.70
2018-06-19T14:18:07.200Z,27.40
2018-06-19T14:20:35.542Z,27.20
2018-06-19T14:23:04.158Z,27.00
2018-06-19T14:25:32.386Z,26.80
2018-06-19T14:28:00.632Z,26.70
2018-06-19T14:30:28.901Z,26.50
2018-06-19T14:35:25.220Z,26.30
2018-06-19T14:37:53.452Z,26.30
2018-06-19T14:40:21.750Z,26.20
2018-06-19T14:42:49.955Z,26.10
2018-06-19T14:45:18.193Z,26.10
2018-06-19T14:47:46.434Z,26.00
2018-06-19T14:50:14.976Z,25.80
2018-06-19T14:52:43.384Z,25.60
2018-06-19T14:57:40.116Z,25.50
2018-06-19T15:00:09.370Z,25.30
2018-06-19T15:02:38.779Z,25.40
2018-06-19T15:05:07.447Z,25.40
2018-06-19T15:07:41.182Z,25.40
2018-06-19T15:10:09.498Z,25.40
2018-06-19T15:12:37.866Z,25.50
2018-06-19T15:15:06.180Z,25.40
2018-06-19T15:17:34.409Z,25.40
2018-06-19T15:20:02.683Z,25.40
2018-06-19T15:22:31.035Z,25.40
2018-06-19T15:24:59.427Z,25.50
2018-06-19T15:27:27.636Z,25.50
2018-06-19T15:29:55.936Z,25.40
2018-06-19T15:32:24.190Z,25.30
2018-06-19T15:34:52.440Z,25.30
2018-06-19T15:37:20.860Z,25.30
2018-06-19T15:39:49.504Z,25.20
2018-06-19T15:42:17.799Z,25.30
2018-06-19T15:44:46.074Z,25.30
2018-06-19T15:47:14.351Z,25.30
2018-06-19T15:49:42.590Z,25.30
2018-06-19T15:52:10.804Z,25.30
2018-06-19T15:54:39.102Z,25.40
2018-06-19T15:57:07.321Z,25.40
2018-06-19T15:59:35.560Z,25.30
2018-06-19T16:02:03.775Z,25.40
2018-06-19T16:04:31.979Z,25.30
2018-06-19T16:07:00.201Z,25.40
2018-06-19T16:09:28.459Z,25.30
2018-06-19T16:11:56.821Z,25.30
2018-06-19T16:14:25.150Z,25.30
2018-06-19T16:16:53.442Z,25.30
2018-06-19T16:19:21.660Z,25.20
2018-06-19T16:21:49.911Z,25.10
2018-06-19T16:24:19.080Z,25.00
2018-06-19T16:26:47.334Z,24.90
2018-06-19T16:29:15.600Z,24.90
2018-06-19T16:31:43.848Z,24.90
2018-06-19T16:34:12.110Z,24.90
2018-06-19T16:36:40.404Z,24.90
2018-06-19T16:39:09.694Z,25.00
2018-06-19T16:41:38.357Z,25.00
2018-06-19T16:44:07.174Z,25.10
2018-06-19T16:46:36.099Z,25.10
2018-06-19T16:49:04.843Z,25.20
2018-06-19T16:51:33.399Z,25.40
2018-06-19T16:54:01.878Z,25.40
2018-06-19T16:56:30.399Z,25.30
2018-06-19T16:58:59.364Z,25.30
2018-06-19T17:01:28.188Z,25.20
2018-06-19T17:03:56.482Z,25.10
2018-06-19T17:06:25.475Z,25.10
2018-06-19T17:08:54.068Z,25.10
2018-06-19T17:11:22.424Z,25.30
2018-06-19T17:13:51.742Z,25.50
2018-06-19T17:16:19.876Z,25.50
2018-06-19T17:18:48.176Z,25.50
2018-06-19T17:21:16.467Z,25.30
2018-06-19T17:23:44.707Z,25.00
2018-06-19T17:26:13.045Z,24.70
2018-06-19T17:28:41.306Z,24.60
2018-06-19T17:31:09.555Z,24.40
2018-06-19T17:33:37.807Z,24.30
2018-06-19T17:36:06.021Z,24.10
2018-06-19T17:38:34.255Z,24.10
2018-06-19T17:41:02.543Z,24.10
2018-06-19T17:43:30.755Z,24.10
2018-06-19T17:45:59.025Z,24.30
2018-06-19T17:50:55.301Z,24.30
2018-06-19T17:53:23.524Z,24.30
2018-06-19T17:55:51.812Z,24.20
2018-06-19T17:58:20.744Z,24.10
2018-06-19T18:00:49.053Z,24.00
2018-06-19T18:03:17.284Z,24.00
2018-06-19T18:05:45.544Z,23.90
2018-06-19T18:08:13.827Z,23.80
2018-06-19T18:10:42.109Z,23.70
2018-06-19T18:13:10.495Z,23.60
2018-06-19T18:15:38.998Z,23.50
2018-06-19T18:18:07.661Z,23.40
2018-06-19T18:20:35.997Z,23.30
2018-06-19T18:28:00.471Z,23.10
2018-06-19T18:30:28.732Z,23.00
2018-06-19T18:32:56.977Z,22.90
2018-06-19T18:35:25.223Z,22.90
2018-06-19T18:37:53.502Z,22.90
2018-06-19T18:40:21.764Z,22.80
2018-06-19T18:42:50.004Z,22.80
2018-06-19T18:45:18.331Z,22.80
2018-06-19T18:47:46.580Z,22.70
2018-06-19T18:50:14.880Z,22.60
2018-06-19T18:52:43.104Z,22.50
2018-06-19T18:55:11.360Z,22.40
2018-06-19T18:57:39.628Z,22.30
2018-06-19T19:00:07.877Z,22.20
2018-06-19T19:02:36.115Z,22.00
2018-06-19T19:05:04.461Z,21.90
2018-06-19T19:07:32.895Z,21.80
2018-06-19T19:10:06.543Z,21.60
2018-06-19T19:12:34.789Z,21.50
2018-06-19T19:15:08.247Z,21.30
2018-06-19T19:17:41.853Z,21.20
2018-06-19T19:20:10.194Z,21.10
2018-06-19T19:22:38.486Z,21.00
2018-06-19T19:25:06.772Z,20.90
2018-06-19T19:27:40.789Z,20.80
2018-06-19T19:30:09.479Z,20.80
2018-06-19T19:32:37.727Z,20.70
2018-06-19T19:35:05.968Z,20.70
2018-06-19T19:37:39.566Z,20.70
2018-06-19T19:40:07.760Z,20.70
2018-06-19T19:42:36.016Z,20.70
2018-06-19T19:45:04.273Z,20.60
2018-06-19T19:47:37.863Z,20.60
2018-06-19T19:50:06.277Z,20.70
2018-06-19T19:52:34.543Z,20.60
2018-06-19T20:00:05.238Z,20.30
2018-06-19T20:02:33.527Z,20.20
2018-06-19T20:05:02.085Z,20.10
2018-06-19T20:07:30.475Z,20.00
2018-06-19T20:09:58.674Z,19.90
2018-06-19T20:12:26.898Z,19.90
2018-06-19T20:14:55.148Z,19.80
2018-06-19T20:17:23.439Z,19.70
2018-06-19T20:19:51.646Z,19.60
2018-06-19T20:22:19.964Z,19.50
2018-06-19T20:24:48.244Z,19.40
2018-06-19T20:27:16.517Z,19.40
2018-06-19T20:29:44.756Z,19.30
2018-06-19T20:32:13.252Z,19.30
2018-06-19T20:34:41.504Z,19.10
2018-06-19T20:37:09.803Z,19.10
2018-06-19T20:39:38.088Z,19.00
2018-06-19T20:42:06.482Z,18.90
2018-06-19T20:44:34.716Z,18.80
2018-06-19T20:47:03.037Z,18.70
2018-06-19T20:49:31.299Z,18.70
2018-06-19T20:52:00.149Z,18.60
2018-06-19T20:54:28.462Z,18.60
2018-06-19T20:56:56.667Z,18.50
2018-06-19T20:59:24.942Z,18.50
2018-06-19T21:01:53.192Z,18.50
2018-06-19T21:04:21.430Z,18.40
2018-06-19T21:06:49.652Z,18.40
2018-06-19T21:09:17.972Z,18.30
2018-06-19T21:11:46.262Z,18.20
2018-06-19T21:14:14.579Z,18.20
2018-06-19T21:16:42.822Z,18.10
2018-06-19T21:19:11.045Z,18.10
2018-06-19T21:21:39.270Z,18.00
2018-06-19T21:24:07.642Z,18.00
2018-06-19T21:26:35.941Z,17.90
2018-06-19T21:29:04.274Z,17.90
2018-06-19T21:31:32.577Z,17.90
2018-06-19T21:34:00.879Z,17.90
2018-06-19T21:36:29.101Z,17.80
2018-06-19T21:38:57.320Z,17.70
2018-06-19T21:41:25.733Z,17.60
2018-06-19T21:43:54.257Z,17.50
2018-06-19T21:46:22.532Z,17.40
2018-06-19T21:48:50.749Z,17.40
2018-06-19T21:53:47.036Z,17.30
2018-06-19T21:56:15.297Z,17.30
2018-06-19T21:58:43.935Z,17.20
2018-06-19T22:03:40.205Z,17.10
2018-06-19T22:06:08.427Z,17.10
2018-06-19T22:08:42.142Z,17.10
2018-06-19T22:11:10.408Z,17.00
2018-06-19T22:13:38.654Z,16.90
2018-06-19T22:16:06.899Z,16.90
2018-06-19T22:18:35.186Z,16.90
2018-06-19T22:21:03.458Z,16.90
2018-06-19T22:23:31.690Z,16.80
2018-06-19T22:25:59.946Z,16.80
2018-06-19T22:28:28.164Z,16.70
2018-06-19T22:33:24.413Z,16.70
2018-06-19T22:35:52.643Z,16.70
2018-06-19T22:38:20.909Z,16.70
2018-06-19T22:40:49.149Z,16.80
2018-06-19T22:43:17.363Z,16.80
2018-06-19T22:45:45.610Z,16.80
2018-06-19T22:48:13.852Z,16.80
2018-06-19T22:50:42.937Z,16.70
2018-06-19T22:55:39.214Z,16.60
2018-06-19T22:58:07.451Z,16.50
2018-06-19T23:03:04.821Z,16.40
2018-06-19T23:08:02.056Z,16.30
2018-06-19T23:10:30.657Z,16.30
2018-06-19T23:12:59.721Z,16.20
2018-06-19T23:15:27.940Z,16.20
2018-06-19T23:22:52.380Z,16.10
2018-06-19T23:25:20.707Z,16.10
2018-06-19T23:27:48.936Z,16.10
2018-06-19T23:30:18.176Z,16.00
2018-06-19T23:32:46.394Z,16.00
2018-06-19T23:35:14.622Z,15.90
2018-06-19T23:37:43.261Z,15.90
2018-06-19T23:40:11.680Z,15.90
2018-06-19T23:42:39.990Z,15.90
2018-06-19T23:45:08.210Z,15.90
2018-06-19T23:47:36.488Z,15.90
2018-06-19T23:50:04.934Z,15.90
2018-06-19T23:52:33.167Z,15.90
2018-06-19T23:55:01.430Z,15.90
2018-06-19T23:57:29.679Z,15.90
2018-06-19T23:59:57.888Z,15.80
